Cumberland Heights, Illinois
Current Conditions -  °F | °C
As of 7:35 PM on Sunday 23 Nov 2014 (Local Time) from KFWC Reporting Station
Moderate Rain Moderate Rain  
Wind Chill: 54°   Ceiling: 1000
Heat Index: 54°   Visibility: 1mi
Dew Point: 53°   Wind: 0mph
Humidity: 99%   Direction: NA
Pressure: 29.25"   Gusts: NA
Location:  38.3669°N, 88.3516°W
Report Text: KFWC 240135Z AUTO 00000KT 1SM RA OVC010 12/12 A2925 RMK AO1 T01200118
Loading
Personal Weather Stations






























Interactive Weather Map New forecast layout! Learn more

10-Day Weather Forecast

Advertisements
Track Severe Weather on mobile